Time;durP1;ratioP1;P1;durP2;ratioP2;P2;SDS_P1;SDS_P2;PMS_P1;PMS_P2;Temp;Humidity;BMP_temperature;BMP_pressure;BME280_temperature;BME280_humidity;BME280_pressure;Samples;Min_cycle;Max_cycle;Signal;HPM_P1;HPM_P2
2023/03/23 00:00:50;;;;;;;11.70;8.43;;;7.20;99.90;;;;;;4155365;28;20477;-65
2023/03/23 00:02:51;;;;;;;16.27;8.80;;;7.10;99.90;;;;;;4146271;28;20076;-62
2023/03/23 00:04:53;;;;;;;13.03;7.77;;;7.10;99.90;;;;;;4147591;28;20042;-62
2023/03/23 00:06:54;;;;;;;12.60;8.50;;;7.10;99.90;;;;;;4159860;28;20493;-64
2023/03/23 00:08:59;;;;;;;13.37;8.17;;;7.10;99.90;;;;;;4161204;28;20103;-66
2023/03/23 00:11:01;;;;;;;12.33;8.00;;;7.10;99.90;;;;;;4161734;28;20473;-62
2023/03/23 00:13:02;;;;;;;15.03;8.43;;;7.10;99.90;;;;;;4160758;28;20095;-63
2023/03/23 00:15:05;;;;;;;13.87;8.67;;;7.00;99.90;;;;;;4161848;28;20048;-62
2023/03/23 00:17:10;;;;;;;13.13;7.40;;;7.00;99.90;;;;;;4159152;28;20045;-62
2023/03/23 00:19:13;;;;;;;18.13;7.97;;;6.90;99.90;;;;;;4144714;28;20096;-64
2023/03/23 00:21:14;;;;;;;13.40;8.50;;;6.90;99.90;;;;;;4144059;28;20116;-61
2023/03/23 00:23:18;;;;;;;12.80;8.07;;;6.90;99.90;;;;;;4156737;28;20436;-63
2023/03/23 00:25:19;;;;;;;13.53;8.27;;;6.90;99.90;;;;;;4144730;28;20033;-61
2023/03/23 00:27:21;;;;;;;12.93;8.17;;;6.90;99.90;;;;;;4145830;28;20390;-64
2023/03/23 00:29:23;;;;;;;14.93;9.77;;;6.90;99.90;;;;;;4144528;28;20030;-66
2023/03/23 00:31:24;;;;;;;19.57;10.37;;;6.80;99.90;;;;;;4145379;28;20038;-62
2023/03/23 00:33:28;;;;;;;22.00;13.50;;;6.80;99.90;;;;;;4145568;28;20021;-62
2023/03/23 00:35:30;;;;;;;27.17;15.20;;;6.70;99.90;;;;;;4157109;28;20017;-62
2023/03/23 00:37:31;;;;;;;23.30;13.00;;;6.60;99.90;;;;;;4158973;28;20034;-63
2023/03/23 00:39:32;;;;;;;27.43;14.93;;;6.60;99.90;;;;;;4161211;28;20034;-67
2023/03/23 00:41:36;;;;;;;19.67;11.80;;;6.60;99.90;;;;;;4161354;28;20103;-61
2023/03/23 00:43:38;;;;;;;26.37;14.17;;;6.50;99.90;;;;;;4148656;28;20576;-66
2023/03/23 00:45:40;;;;;;;23.30;14.17;;;6.50;99.90;;;;;;4147587;28;20084;-64
2023/03/23 00:47:46;;;;;;;23.47;14.00;;;6.40;99.90;;;;;;4160743;28;20382;-61
2023/03/23 00:49:47;;;;;;;29.17;15.60;;;6.30;99.90;;;;;;4161001;28;20099;-61
2023/03/23 00:51:48;;;;;;;28.40;14.87;;;6.20;99.90;;;;;;4160364;28;20358;-61
2023/03/23 00:53:50;;;;;;;27.90;16.17;;;6.20;99.90;;;;;;4161362;28;20084;-61
2023/03/23 00:55:51;;;;;;;29.57;16.57;;;6.10;99.90;;;;;;4160378;28;20477;-61
2023/03/23 00:57:53;;;;;;;28.33;16.17;;;6.00;99.90;;;;;;4160028;28;20030;-62
2023/03/23 00:59:54;;;;;;;32.97;16.10;;;6.00;99.90;;;;;;4156172;28;20033;-61
2023/03/23 01:01:55;;;;;;;28.83;17.10;;;5.90;99.90;;;;;;4145350;28;20034;-61
2023/03/23 01:04:03;;;;;;;30.03;16.43;;;5.90;99.90;;;;;;4144120;28;20516;-61
2023/03/23 01:06:08;;;;;;;28.30;15.83;;;5.80;99.90;;;;;;4147129;28;20445;-61
2023/03/23 01:08:10;;;;;;;26.90;15.73;;;5.80;99.90;;;;;;4153289;28;20042;-62
2023/03/23 01:10:15;;;;;;;27.33;14.90;;;5.60;99.90;;;;;;4145386;28;20050;-60
2023/03/23 01:12:16;;;;;;;26.33;15.53;;;5.60;99.90;;;;;;4145800;28;20018;-60
2023/03/23 01:14:19;;;;;;;25.23;14.17;;;5.60;99.90;;;;;;4145198;28;20084;-61
2023/03/23 01:16:20;;;;;;;26.67;15.33;;;5.60;99.90;;;;;;4152043;28;20041;-60
2023/03/23 01:18:21;;;;;;;27.70;16.13;;;5.60;99.90;;;;;;4160837;28;20042;-61
2023/03/23 01:20:24;;;;;;;25.80;15.00;;;5.60;99.90;;;;;;4160500;28;20045;-61
2023/03/23 01:22:25;;;;;;;22.03;13.53;;;5.60;99.90;;;;;;4158680;28;20033;-61
2023/03/23 01:24:26;;;;;;;29.47;16.13;;;5.50;99.90;;;;;;4161506;28;20095;-62
2023/03/23 01:26:29;;;;;;;25.57;14.93;;;5.50;99.90;;;;;;4159922;28;20042;-61
2023/03/23 01:28:30;;;;;;;30.83;15.23;;;5.40;99.90;;;;;;4161097;28;20547;-61
2023/03/23 01:30:31;;;;;;;24.93;15.10;;;5.40;99.90;;;;;;4160486;28;20537;-61
2023/03/23 01:32:32;;;;;;;26.93;15.00;;;5.50;99.90;;;;;;4164702;28;20808;-62
2023/03/23 01:34:33;;;;;;;28.57;15.57;;;5.40;99.90;;;;;;4161843;28;20430;-60
2023/03/23 01:36:35;;;;;;;26.47;15.27;;;5.40;99.90;;;;;;4162830;28;20025;-62
2023/03/23 01:38:36;;;;;;;28.90;14.67;;;5.40;99.90;;;;;;4147238;28;20018;-61
2023/03/23 01:40:37;;;;;;;26.47;16.07;;;5.30;99.90;;;;;;4148330;28;20486;-61
2023/03/23 01:42:39;;;;;;;26.57;15.30;;;5.20;99.90;;;;;;4147262;28;20042;-61
2023/03/23 01:44:40;;;;;;;25.57;15.00;;;5.10;99.90;;;;;;4157483;28;20457;-61
2023/03/23 01:46:42;;;;;;;27.17;15.20;;;5.10;99.90;;;;;;4163407;28;20661;-61
2023/03/23 01:48:44;;;;;;;28.07;15.50;;;5.10;99.90;;;;;;4155061;28;20034;-62
2023/03/23 01:51:05;;;;;;;29.93;16.10;;;5.10;99.90;;;;;;4155818;28;20045;-61
2023/03/23 01:53:10;;;;;;;27.60;16.05;;;5.10;99.90;;;;;;4154011;28;20368;-63
2023/03/23 01:55:11;;;;;;;26.80;15.63;;;5.10;99.90;;;;;;4150062;28;20441;-61
2023/03/23 01:57:16;;;;;;;25.27;15.23;;;5.10;99.90;;;;;;4147129;28;20034;-60
2023/03/23 01:59:19;;;;;;;26.43;15.63;;;5.10;99.90;;;;;;4148662;28;20030;-60
2023/03/23 02:01:26;;;;;;;24.80;14.10;;;5.10;99.90;;;;;;4146712;28;20033;-62
2023/03/23 02:03:29;;;;;;;25.23;14.13;;;5.00;99.90;;;;;;4155887;28;20072;-62
2023/03/23 02:05:35;;;;;;;23.73;13.97;;;5.00;99.90;;;;;;4153031;28;20608;-67
2023/03/23 02:07:36;;;;;;;22.27;12.83;;;5.00;99.90;;;;;;4162365;28;20088;-63
2023/03/23 02:09:37;;;;;;;23.60;13.70;;;5.00;99.90;;;;;;4149836;28;20034;-60
2023/03/23 02:11:39;;;;;;;22.80;12.77;;;4.90;99.90;;;;;;4147610;28;20099;-62
2023/03/23 02:13:40;;;;;;;22.77;12.80;;;5.00;99.90;;;;;;4147040;28;20532;-64
2023/03/23 02:15:53;;;;;;;23.90;12.37;;;5.00;99.90;;;;;;4162017;28;20045;-62
2023/03/23 02:18:07;;;;;;;21.67;12.47;;;5.00;99.90;;;;;;4162916;28;20485;-62
2023/03/23 02:20:17;;;;;;;22.10;12.70;;;4.90;99.90;;;;;;4163550;28;20050;-61
2023/03/23 02:22:24;;;;;;;21.92;13.20;;;4.90;99.90;;;;;;4154411;28;20355;-60
2023/03/23 02:24:29;;;;;;;21.37;13.33;;;4.90;99.90;;;;;;4146973;28;20100;-60
2023/03/23 02:26:44;;;;;;;22.17;12.90;;;4.80;99.90;;;;;;4149065;28;20088;-61
2023/03/23 02:29:11;;;;;;;20.67;11.70;;;4.80;99.90;;;;;;4160130;28;20096;-60
2023/03/23 02:31:44;;;;;;;22.33;12.63;;;4.80;99.90;;;;;;4146247;28;20872;-59
2023/03/23 02:34:26;;;;;;;20.00;11.83;;;4.80;99.90;;;;;;4135373;28;20033;-61
2023/03/23 02:36:46;;;;;;;19.17;12.07;;;4.80;99.90;;;;;;4080286;29;20341;-61
2023/03/23 02:39:00;;;;;;;19.05;11.80;;;4.70;99.90;;;;;;4126955;28;20597;-61
2023/03/23 02:41:03;;;;;;;23.67;12.13;;;4.70;99.90;;;;;;4130807;28;20054;-66
2023/03/23 02:43:08;;;;;;;20.20;11.70;;;4.70;99.90;;;;;;4156773;28;20872;-61
2023/03/23 02:45:13;;;;;;;20.53;11.97;;;4.70;99.90;;;;;;4152011;28;20901;-62
2023/03/23 02:47:25;;;;;;;19.50;11.23;;;4.70;99.90;;;;;;4145886;28;20272;-61
2023/03/23 02:49:30;;;;;;;20.20;12.23;;;4.60;99.90;;;;;;4146630;28;20026;-61
2023/03/23 02:51:34;;;;;;;21.30;11.30;;;4.60;99.90;;;;;;4150110;28;20095;-62
2023/03/23 02:53:42;;;;;;;17.37;11.03;;;4.60;99.90;;;;;;4154282;28;20283;-67
2023/03/23 02:55:44;;;;;;;16.13;10.03;;;4.50;99.90;;;;;;4146529;28;20092;-61
2023/03/23 02:57:46;;;;;;;20.03;11.90;;;4.50;99.90;;;;;;4149904;28;20033;-67
2023/03/23 02:59:47;;;;;;;17.53;10.53;;;4.40;99.90;;;;;;4158126;28;20025;-58
2023/03/23 03:01:55;;;;;;;18.17;11.27;;;4.40;99.90;;;;;;4162172;28;20291;-61
2023/03/23 03:04:00;;;;;;;19.90;10.80;;;4.40;99.90;;;;;;4163203;28;20263;-61
2023/03/23 03:06:12;;;;;;;21.40;11.37;;;4.40;99.90;;;;;;4152110;28;20847;-62
2023/03/23 03:08:26;;;;;;;19.03;10.50;;;4.30;99.90;;;;;;4161427;28;20329;-61
2023/03/23 03:10:30;;;;;;;17.27;10.53;;;4.30;99.90;;;;;;4161683;28;20349;-61
2023/03/23 03:12:35;;;;;;;18.83;10.57;;;4.30;99.90;;;;;;4162962;28;20310;-61
2023/03/23 03:14:55;;;;;;;21.63;11.90;;;4.30;99.90;;;;;;4160630;28;20371;-62
2023/03/23 03:17:19;;;;;;;16.60;10.73;;;4.30;99.90;;;;;;4148143;28;21149;-60
2023/03/23 03:19:35;;;;;;;18.77;10.97;;;4.30;99.90;;;;;;4145659;28;20813;-62
2023/03/23 03:21:40;;;;;;;19.37;10.37;;;4.30;99.90;;;;;;4131877;28;20453;-61
2023/03/23 03:23:43;;;;;;;17.03;10.97;;;4.30;99.90;;;;;;4153367;28;20336;-61
2023/03/23 03:25:49;;;;;;;18.83;10.97;;;4.30;99.90;;;;;;4146258;28;20739;-61
2023/03/23 03:27:52;;;;;;;19.97;11.07;;;4.30;99.90;;;;;;4147949;28;20282;-61
2023/03/23 03:29:59;;;;;;;18.93;11.47;;;4.30;99.90;;;;;;4160411;28;21306;-61
2023/03/23 03:32:05;;;;;;;19.10;10.97;;;4.30;99.90;;;;;;4161294;28;20813;-61
2023/03/23 03:34:06;;;;;;;19.23;11.07;;;4.30;99.90;;;;;;4162829;28;20305;-64
2023/03/23 03:36:16;;;;;;;23.33;11.40;;;4.30;99.90;;;;;;4160751;28;20279;-61
2023/03/23 03:38:17;;;;;;;18.43;10.77;;;4.20;99.90;;;;;;4160905;28;20278;-61
2023/03/23 03:40:21;;;;;;;21.13;11.57;;;4.20;99.90;;;;;;4145687;28;20345;-60
2023/03/23 03:42:22;;;;;;;18.83;11.27;;;4.20;99.90;;;;;;4161284;28;20282;-61
2023/03/23 03:44:23;;;;;;;19.03;11.20;;;4.10;99.90;;;;;;4160147;28;20084;-61
2023/03/23 03:46:26;;;;;;;19.07;11.30;;;4.10;99.90;;;;;;4160818;28;20083;-61
2023/03/23 03:48:27;;;;;;;18.60;10.77;;;4.00;99.90;;;;;;4154850;28;20091;-65
2023/03/23 03:50:29;;;;;;;18.33;10.90;;;4.00;99.90;;;;;;4147712;28;20275;-61
2023/03/23 03:52:30;;;;;;;23.07;11.67;;;4.00;99.90;;;;;;4158202;28;20270;-62
2023/03/23 03:54:31;;;;;;;19.73;10.33;;;4.00;99.90;;;;;;4144764;28;20267;-61
2023/03/23 03:56:35;;;;;;;20.17;11.33;;;4.00;99.90;;;;;;4145473;28;22304;-63
2023/03/23 03:58:36;;;;;;;25.13;11.40;;;4.00;99.90;;;;;;4152147;28;20270;-61
2023/03/23 04:00:38;;;;;;;17.40;9.90;;;4.00;99.90;;;;;;4151643;28;20716;-61
2023/03/23 04:02:47;;;;;;;17.57;10.33;;;4.00;99.90;;;;;;4144589;28;20353;-61
2023/03/23 04:04:49;;;;;;;18.13;10.73;;;3.90;99.90;;;;;;4148731;28;20789;-61
2023/03/23 04:06:50;;;;;;;18.63;11.40;;;3.90;99.90;;;;;;4146462;28;20624;-61
2023/03/23 04:08:52;;;;;;;20.97;11.43;;;3.90;99.90;;;;;;4145582;28;20299;-61
2023/03/23 04:10:53;;;;;;;22.17;13.10;;;3.90;99.90;;;;;;4155938;28;20325;-64
2023/03/23 04:12:55;;;;;;;20.67;11.47;;;3.80;99.90;;;;;;4150766;28;20275;-61
2023/03/23 04:14:57;;;;;;;25.73;11.93;;;3.80;99.90;;;;;;4150801;28;20274;-60
2023/03/23 04:16:58;;;;;;;18.37;12.00;;;3.70;99.90;;;;;;4160244;28;20271;-61
2023/03/23 04:19:00;;;;;;;22.17;12.73;;;3.70;99.90;;;;;;4160357;28;20587;-61
2023/03/23 04:21:03;;;;;;;26.10;12.77;;;3.60;99.90;;;;;;4161580;28;20282;-60
2023/03/23 04:23:05;;;;;;;27.53;11.27;;;3.60;99.90;;;;;;4156874;28;20325;-61
2023/03/23 04:25:06;;;;;;;23.23;11.87;;;3.50;99.90;;;;;;4145480;28;20264;-61
2023/03/23 04:27:07;;;;;;;23.87;11.47;;;3.50;99.90;;;;;;4144595;28;20271;-61
2023/03/23 04:29:09;;;;;;;22.87;11.23;;;3.50;99.90;;;;;;4149876;28;20278;-61
2023/03/23 04:31:12;;;;;;;24.57;12.23;;;3.50;99.90;;;;;;4161141;28;20255;-61
2023/03/23 04:33:14;;;;;;;20.53;11.47;;;3.50;99.90;;;;;;4161172;28;20336;-62
2023/03/23 04:35:16;;;;;;;30.37;11.37;;;3.50;99.90;;;;;;4153605;28;20263;-62
2023/03/23 04:37:17;;;;;;;22.90;11.07;;;3.60;99.90;;;;;;4145616;28;20302;-60
2023/03/23 04:39:19;;;;;;;21.20;11.37;;;3.60;99.90;;;;;;4151485;28;20615;-61
2023/03/23 04:41:21;;;;;;;18.37;10.27;;;3.70;99.90;;;;;;4160247;28;20291;-61
2023/03/23 04:43:24;;;;;;;21.07;11.63;;;3.80;99.90;;;;;;4155021;28;20318;-60
2023/03/23 04:45:26;;;;;;;25.73;13.47;;;3.90;99.90;;;;;;4148427;28;20270;-60
2023/03/23 04:47:30;;;;;;;31.03;16.90;;;4.10;99.90;;;;;;4144668;28;20279;-61
2023/03/23 04:49:31;;;;;;;28.20;18.97;;;4.40;99.90;;;;;;4144440;28;20290;-63
2023/03/23 04:51:32;;;;;;;25.93;14.93;;;4.60;99.90;;;;;;4145082;28;20678;-62
2023/03/23 04:53:33;;;;;;;23.73;15.93;;;4.90;99.90;;;;;;4144245;28;20275;-61
2023/03/23 04:55:36;;;;;;;32.87;18.80;;;5.20;99.90;;;;;;4145273;28;20392;-62
2023/03/23 04:57:38;;;;;;;33.17;20.77;;;5.40;99.90;;;;;;4144728;28;20096;-62
2023/03/23 04:59:40;;;;;;;30.03;20.03;;;5.70;99.90;;;;;;4145326;28;20038;-63
2023/03/23 05:01:45;;;;;;;36.73;23.33;;;5.90;99.90;;;;;;4144524;28;20108;-62
2023/03/23 05:03:46;;;;;;;38.63;27.07;;;6.20;99.90;;;;;;4157389;28;20041;-62
2023/03/23 05:05:51;;;;;;;36.23;21.63;;;6.50;99.90;;;;;;4154153;28;20107;-65
2023/03/23 05:07:52;;;;;;;33.57;23.07;;;6.80;99.90;;;;;;4147743;28;20050;-62
2023/03/23 05:09:54;;;;;;;32.17;19.50;;;7.10;99.90;;;;;;4147853;28;20084;-60
2023/03/23 05:11:55;;;;;;;25.10;14.67;;;7.40;99.90;;;;;;4147524;28;20100;-72
2023/03/23 05:13:56;;;;;;;26.50;14.77;;;7.80;99.90;;;;;;4148531;28;20084;-60
2023/03/23 05:15:57;;;;;;;21.10;14.37;;;8.10;99.90;;;;;;4155870;28;20427;-62
2023/03/23 05:17:59;;;;;;;23.73;15.37;;;8.30;99.90;;;;;;4163876;28;20037;-61
2023/03/23 05:20:04;;;;;;;24.10;15.40;;;8.70;99.90;;;;;;4158168;28;20030;-61
2023/03/23 05:22:05;;;;;;;23.97;15.23;;;8.80;99.90;;;;;;4148493;28;20050;-68
2023/03/23 05:24:06;;;;;;;25.97;14.77;;;9.00;99.90;;;;;;4149057;28;20045;-61
2023/03/23 05:26:08;;;;;;;22.77;13.77;;;9.20;99.90;;;;;;4148679;28;20037;-62
2023/03/23 05:28:10;;;;;;;21.53;13.40;;;9.40;99.90;;;;;;4146873;28;20030;-61
2023/03/23 05:30:15;;;;;;;21.80;13.87;;;9.80;99.90;;;;;;4148074;28;20111;-61
2023/03/23 05:32:19;;;;;;;17.97;11.33;;;10.20;99.90;;;;;;4154377;28;20050;-60
2023/03/23 05:34:20;;;;;;;18.53;11.60;;;10.60;99.90;;;;;;4161501;28;20091;-60
2023/03/23 05:36:22;;;;;;;17.93;10.33;;;11.00;99.90;;;;;;4163046;28;20464;-61
2023/03/23 05:38:24;;;;;;;16.23;10.30;;;11.00;99.90;;;;;;4164033;28;20017;-70
2023/03/23 05:40:25;;;;;;;18.93;10.37;;;11.20;99.90;;;;;;4162821;28;20091;-68
2023/03/23 05:42:27;;;;;;;15.07;9.97;;;11.30;99.90;;;;;;4163365;28;20033;-61
2023/03/23 05:44:29;;;;;;;15.77;9.30;;;11.60;99.90;;;;;;4163929;28;20029;-66
2023/03/23 05:46:30;;;;;;;23.47;9.93;;;11.90;99.90;;;;;;4162669;28;20093;-68
2023/03/23 05:48:31;;;;;;;19.63;10.30;;;12.10;99.90;;;;;;4163403;28;20492;-71
2023/03/23 05:50:32;;;;;;;24.83;10.57;;;12.20;99.90;;;;;;4160980;28;20083;-62
2023/03/23 05:52:35;;;;;;;22.33;10.57;;;12.20;99.90;;;;;;4163427;28;20033;-66
2023/03/23 05:54:36;;;;;;;22.10;13.77;;;12.00;99.90;;;;;;4162973;28;20428;-62
2023/03/23 05:56:38;;;;;;;27.47;14.20;;;12.10;99.90;;;;;;4163753;28;20071;-60
2023/03/23 05:58:39;;;;;;;25.30;12.37;;;12.20;99.90;;;;;;4162404;28;20436;-60
2023/03/23 06:00:41;;;;;;;25.97;12.50;;;12.50;99.90;;;;;;4163803;28;20034;-62
2023/03/23 06:02:43;;;;;;;17.87;10.97;;;12.00;99.90;;;;;;4162272;28;20049;-68
2023/03/23 06:04:44;;;;;;;23.07;12.07;;;11.40;99.90;;;;;;4163239;28;20037;-64
2023/03/23 06:06:45;;;;;;;21.10;11.43;;;11.10;99.90;;;;;;4162195;28;20452;-59
2023/03/23 06:08:50;;;;;;;27.47;12.57;;;10.90;99.90;;;;;;4163673;28;20033;-71
2023/03/23 06:10:51;;;;;;;18.87;10.90;;;11.20;99.90;;;;;;4159458;28;20423;-61
2023/03/23 06:12:52;;;;;;;20.00;10.40;;;11.50;99.90;;;;;;4150100;28;20493;-62
2023/03/23 06:14:53;;;;;;;17.10;10.37;;;11.80;99.90;;;;;;4135301;28;20027;-61
2023/03/23 06:16:54;;;;;;;18.80;10.57;;;12.10;99.90;;;;;;4134347;28;20030;-67
2023/03/23 06:18:56;;;;;;;23.13;11.27;;;12.50;99.90;;;;;;4126361;28;20050;-63
2023/03/23 06:20:57;;;;;;;19.73;11.43;;;12.80;99.90;;;;;;4138141;28;20108;-61
2023/03/23 06:22:58;;;;;;;21.30;11.43;;;12.80;99.90;;;;;;4126574;28;20089;-63
2023/03/23 06:25:00;;;;;;;21.77;11.60;;;13.20;99.90;;;;;;4129660;28;20038;-61
2023/03/23 06:27:01;;;;;;;23.37;11.47;;;13.50;99.90;;;;;;4133203;28;20046;-62
2023/03/23 06:29:10;;;;;;;21.40;10.83;;;13.90;99.90;;;;;;4131257;28;20445;-59
2023/03/23 06:31:11;;;;;;;22.10;11.60;;;14.30;99.80;;;;;;4135071;28;20453;-60
2023/03/23 06:33:12;;;;;;;23.57;11.30;;;14.80;99.30;;;;;;4141070;28;20034;-71
2023/03/23 06:35:15;;;;;;;26.17;12.53;;;14.50;98.70;;;;;;4136617;28;20037;-60
2023/03/23 06:37:16;;;;;;;29.37;11.60;;;14.70;98.80;;;;;;4135621;28;20089;-62
2023/03/23 06:39:18;;;;;;;24.07;10.80;;;14.60;98.30;;;;;;4132213;28;20034;-73
2023/03/23 06:41:19;;;;;;;16.63;9.80;;;14.30;98.40;;;;;;4135503;28;20498;-62
2023/03/23 06:43:21;;;;;;;17.20;9.97;;;14.60;98.40;;;;;;4130454;28;20034;-61
2023/03/23 06:45:22;;;;;;;14.87;9.27;;;14.90;97.70;;;;;;4135232;28;20030;-61
2023/03/23 06:47:24;;;;;;;15.67;9.77;;;15.40;97.20;;;;;;4129478;28;20092;-65
2023/03/23 06:49:25;;;;;;;19.80;10.73;;;15.60;96.50;;;;;;4131237;28;20430;-65
2023/03/23 06:51:26;;;;;;;25.90;9.43;;;15.30;96.20;;;;;;4132960;28;20084;-63
2023/03/23 06:53:27;;;;;;;16.10;9.60;;;15.00;96.50;;;;;;4135077;28;20030;-62
2023/03/23 06:55:30;;;;;;;18.55;9.75;;;14.80;96.70;;;;;;4127538;28;20038;-70
2023/03/23 06:57:31;;;;;;;18.40;10.63;;;14.70;97.00;;;;;;4135042;28;20051;-73
2023/03/23 06:59:32;;;;;;;19.63;9.55;;;14.60;97.00;;;;;;4136186;28;20033;-68
2023/03/23 07:01:34;;;;;;;14.15;9.52;;;14.40;97.10;;;;;;4132682;28;20054;-74
2023/03/23 07:03:36;;;;;;;20.58;10.70;;;14.30;97.30;;;;;;4137056;28;20601;-65
2023/03/23 07:05:37;;;;;;;18.33;10.50;;;13.90;97.70;;;;;;4136255;28;20049;-63
2023/03/23 07:07:41;;;;;;;24.88;12.23;;;13.50;98.30;;;;;;4128563;28;20119;-71
2023/03/23 07:09:42;;;;;;;27.08;12.98;;;13.40;98.50;;;;;;4130123;28;20105;-67
2023/03/23 07:11:43;;;;;;;21.30;12.90;;;13.00;99.10;;;;;;4130359;28;20490;-67
2023/03/23 07:13:46;;;;;;;19.97;12.13;;;12.70;99.70;;;;;;4131924;28;20042;-63
2023/03/23 07:15:48;;;;;;;20.40;11.67;;;12.60;99.90;;;;;;4127399;28;20104;-64
2023/03/23 07:17:49;;;;;;;19.93;12.43;;;12.30;99.90;;;;;;4133009;28;20076;-62
2023/03/23 07:19:51;;;;;;;17.40;11.23;;;11.70;99.90;;;;;;4141034;28;20465;-70
2023/03/23 07:21:52;;;;;;;16.80;11.33;;;11.50;99.90;;;;;;4141933;28;20438;-64
2023/03/23 07:23:53;;;;;;;20.47;11.53;;;11.70;99.90;;;;;;4132768;28;20042;-68
2023/03/23 07:25:55;;;;;;;20.77;12.33;;;11.70;99.90;;;;;;4141565;28;20092;-71
2023/03/23 07:27:56;;;;;;;17.27;10.27;;;11.60;99.90;;;;;;4133707;28;20030;-65
2023/03/23 07:29:58;;;;;;;18.40;10.73;;;11.70;99.90;;;;;;4134970;28;20037;-67
2023/03/23 07:31:59;;;;;;;17.37;11.10;;;11.90;99.90;;;;;;4139778;28;20088;-65
2023/03/23 07:34:01;;;;;;;21.37;11.53;;;11.90;99.90;;;;;;4124886;28;20089;-64
2023/03/23 07:36:03;;;;;;;17.60;10.63;;;11.90;99.90;;;;;;4132731;28;20211;-63
2023/03/23 07:38:06;;;;;;;15.43;9.90;;;12.10;99.90;;;;;;4137251;28;20569;-67
2023/03/23 07:40:14;;;;;;;18.20;9.97;;;12.20;99.90;;;;;;4142467;28;20029;-67
2023/03/23 07:42:15;;;;;;;14.03;9.43;;;12.20;99.90;;;;;;4145033;28;20038;-64
2023/03/23 07:44:16;;;;;;;14.63;9.13;;;12.00;99.90;;;;;;4154709;28;20034;-64
2023/03/23 07:46:17;;;;;;;13.77;9.80;;;11.80;99.90;;;;;;4144595;28;20050;-62
2023/03/23 07:48:19;;;;;;;16.70;11.30;;;11.70;99.90;;;;;;4145204;28;20034;-62
2023/03/23 07:50:24;;;;;;;14.83;9.20;;;11.70;99.90;;;;;;4144194;28;20025;-63
2023/03/23 07:52:25;;;;;;;14.70;8.50;;;11.60;99.90;;;;;;4151552;28;20075;-65
2023/03/23 07:54:26;;;;;;;15.30;9.57;;;11.40;99.90;;;;;;4160528;28;20018;-62
2023/03/23 07:56:28;;;;;;;13.10;9.23;;;11.30;99.90;;;;;;4158906;28;20055;-63
2023/03/23 07:58:30;;;;;;;13.80;8.73;;;11.30;99.90;;;;;;4148948;28;20060;-74
2023/03/23 08:00:32;;;;;;;13.93;9.10;;;11.40;99.90;;;;;;4144662;28;20025;-67
2023/03/23 08:02:33;;;;;;;15.03;9.37;;;11.50;99.90;;;;;;4145214;28;20123;-64
2023/03/23 08:04:37;;;;;;;14.67;10.67;;;11.60;99.90;;;;;;4145405;28;20536;-64
2023/03/23 08:06:39;;;;;;;17.70;12.33;;;11.60;99.90;;;;;;4144895;28;20497;-62
2023/03/23 08:08:40;;;;;;;20.00;12.43;;;11.60;99.90;;;;;;4147873;28;20041;-64
2023/03/23 08:10:41;;;;;;;16.30;11.83;;;11.80;99.90;;;;;;4145017;28;20508;-69
2023/03/23 08:12:46;;;;;;;17.13;11.50;;;12.10;99.90;;;;;;4144748;28;20076;-65
2023/03/23 08:14:48;;;;;;;22.00;13.10;;;12.30;99.90;;;;;;4147020;28;20462;-63
2023/03/23 08:16:49;;;;;;;23.50;12.60;;;12.70;99.90;;;;;;4133978;28;20046;-61
2023/03/23 08:18:50;;;;;;;21.87;13.40;;;13.00;99.90;;;;;;4145319;28;20072;-61
2023/03/23 08:20:53;;;;;;;19.97;11.97;;;13.00;99.90;;;;;;4155823;28;20041;-61
2023/03/23 08:22:56;;;;;;;18.57;12.13;;;12.90;99.90;;;;;;4158739;28;20650;-62
2023/03/23 08:24:57;;;;;;;17.37;10.47;;;12.80;99.90;;;;;;4159250;28;20483;-62
2023/03/23 08:27:00;;;;;;;24.27;11.73;;;12.80;99.90;;;;;;4159684;28;20076;-61
2023/03/23 08:29:03;;;;;;;27.20;12.20;;;12.90;99.90;;;;;;4136975;28;20376;-62
2023/03/23 08:31:09;;;;;;;18.43;10.87;;;13.10;99.90;;;;;;4129078;28;20112;-69
2023/03/23 08:33:11;;;;;;;18.10;10.30;;;13.30;99.90;;;;;;4128602;28;20034;-63
2023/03/23 08:35:14;;;;;;;17.53;10.00;;;13.30;99.90;;;;;;4127758;28;20450;-68
2023/03/23 08:37:16;;;;;;;14.93;9.40;;;13.50;99.90;;;;;;4129739;28;20109;-62
2023/03/23 08:39:18;;;;;;;15.57;9.20;;;13.30;99.90;;;;;;4143890;28;20022;-61
2023/03/23 08:41:19;;;;;;;13.63;10.23;;;13.30;99.90;;;;;;4151654;28;20025;-61
2023/03/23 08:43:21;;;;;;;17.37;10.07;;;13.30;99.90;;;;;;4146874;28;20065;-62
2023/03/23 08:45:24;;;;;;;15.97;9.37;;;13.60;99.90;;;;;;4145454;28;20390;-62
2023/03/23 08:47:26;;;;;;;16.27;9.33;;;13.70;99.90;;;;;;4131627;28;20557;-63
2023/03/23 08:49:27;;;;;;;15.73;8.43;;;13.90;99.90;;;;;;4138826;28;20446;-63
2023/03/23 08:51:28;;;;;;;12.40;8.73;;;14.10;99.90;;;;;;4143715;28;20084;-63
2023/03/23 08:53:31;;;;;;;13.40;8.47;;;14.00;99.90;;;;;;4144848;28;20475;-62
2023/03/23 08:55:32;;;;;;;11.97;8.30;;;14.00;99.90;;;;;;4141280;28;20120;-62
2023/03/23 08:57:33;;;;;;;14.47;9.00;;;14.00;99.90;;;;;;4144916;28;20076;-63
2023/03/23 08:59:34;;;;;;;15.83;8.07;;;14.30;99.90;;;;;;4145333;28;20447;-67
2023/03/23 09:01:35;;;;;;;13.03;8.07;;;14.40;99.90;;;;;;4151895;28;20103;-64
2023/03/23 09:03:38;;;;;;;11.93;6.80;;;14.70;99.90;;;;;;4144086;28;20080;-66
2023/03/23 09:05:45;;;;;;;14.63;8.00;;;14.80;99.90;;;;;;4145013;28;20046;-62
2023/03/23 09:07:48;;;;;;;14.70;8.77;;;14.70;99.90;;;;;;4146222;28;20033;-74
2023/03/23 09:09:49;;;;;;;11.25;8.02;;;14.60;99.90;;;;;;4143610;28;20440;-72
2023/03/23 09:11:50;;;;;;;13.57;7.28;;;14.80;99.90;;;;;;4144509;28;20050;-72
2023/03/23 09:13:52;;;;;;;12.48;7.70;;;14.90;99.90;;;;;;4141940;28;20084;-64
2023/03/23 09:15:53;;;;;;;15.45;7.70;;;15.00;99.90;;;;;;4144531;28;20133;-62
2023/03/23 09:17:54;;;;;;;9.70;7.28;;;15.10;99.90;;;;;;4144215;28;20498;-67
2023/03/23 09:19:55;;;;;;;11.00;7.05;;;15.10;99.90;;;;;;4158140;28;20091;-62
2023/03/23 09:21:56;;;;;;;9.73;7.05;;;15.10;99.90;;;;;;4143612;28;20085;-71
2023/03/23 09:23:58;;;;;;;11.32;7.22;;;15.10;99.90;;;;;;4144077;28;20034;-63
2023/03/23 09:26:01;;;;;;;11.95;7.88;;;15.00;99.90;;;;;;4142997;28;20042;-69
2023/03/23 09:28:03;;;;;;;14.02;7.18;;;15.00;99.90;;;;;;4144041;28;20049;-62
2023/03/23 09:30:06;;;;;;;12.02;7.85;;;15.00;99.90;;;;;;4144523;28;20061;-66
2023/03/23 09:32:07;;;;;;;8.02;6.43;;;15.20;99.90;;;;;;4147181;28;20092;-69
2023/03/23 09:34:12;;;;;;;11.48;7.60;;;15.30;99.90;;;;;;4143654;28;20537;-67
2023/03/23 09:36:16;;;;;;;11.82;6.90;;;15.30;99.90;;;;;;4144307;28;20084;-67
2023/03/23 09:38:19;;;;;;;11.13;7.57;;;15.30;99.90;;;;;;4149825;28;20022;-64
2023/03/23 09:40:20;;;;;;;11.23;7.03;;;15.20;99.90;;;;;;4160749;28;20025;-72
2023/03/23 09:42:21;;;;;;;11.88;7.47;;;15.10;99.90;;;;;;4160166;28;20037;-65
2023/03/23 09:44:41;;;;;;;10.60;7.18;;;15.10;99.90;;;;;;4159893;28;20025;-69
2023/03/23 09:47:10;;;;;;;9.55;5.97;;;15.10;99.90;;;;;;4156556;28;20037;-63
2023/03/23 09:49:34;;;;;;;12.77;6.40;;;15.20;99.90;;;;;;4144314;28;20390;-70
2023/03/23 09:51:53;;;;;;;11.10;7.15;;;15.20;99.90;;;;;;4143513;28;20034;-64
2023/03/23 09:54:00;;;;;;;11.45;6.55;;;15.30;99.90;;;;;;4146597;28;20033;-63
2023/03/23 09:56:08;;;;;;;9.80;6.22;;;15.60;99.90;;;;;;4145880;28;20425;-66
2023/03/23 09:58:31;;;;;;;7.18;5.40;;;15.70;99.90;;;;;;4146956;28;20034;-67
2023/03/23 10:00:47;;;;;;;10.55;6.68;;;15.70;99.40;;;;;;4154399;28;20557;-69
2023/03/23 10:03:11;;;;;;;11.23;6.68;;;15.80;99.50;;;;;;4154845;28;20118;-66
2023/03/23 10:05:30;;;;;;;10.35;5.75;;;15.70;97.90;;;;;;4148344;28;20084;-68
2023/03/23 10:07:32;;;;;;;10.20;6.28;;;15.60;98.40;;;;;;4152782;28;20038;-65
2023/03/23 10:09:33;;;;;;;7.40;5.22;;;15.70;98.50;;;;;;4135267;28;20080;-62
2023/03/23 10:12:00;;;;;;;9.05;5.28;;;15.70;98.30;;;;;;4147680;28;20041;-66
2023/03/23 10:14:04;;;;;;;6.65;5.47;;;15.80;98.20;;;;;;4146391;28;20092;-65
2023/03/23 10:16:12;;;;;;;5.45;4.40;;;15.80;98.10;;;;;;4147363;28;20088;-62
2023/03/23 10:18:23;;;;;;;7.07;3.72;;;15.70;96.90;;;;;;4136665;28;20050;-68
2023/03/23 10:20:44;;;;;;;8.90;4.63;;;15.80;96.40;;;;;;4130919;28;20094;-64
2023/03/23 10:22:58;;;;;;;10.10;5.80;;;15.90;96.00;;;;;;4129603;28;20046;-66
2023/03/23 10:25:18;;;;;;;7.30;5.63;;;16.00;96.50;;;;;;4140401;28;20080;-62
2023/03/23 10:27:29;;;;;;;7.97;5.75;;;16.00;96.70;;;;;;4129630;28;20073;-67
2023/03/23 10:29:40;;;;;;;10.77;5.70;;;16.10;96.80;;;;;;4131258;28;20054;-63
2023/03/23 10:31:53;;;;;;;12.02;5.95;;;16.10;97.00;;;;;;4129771;28;20168;-66
2023/03/23 10:33:59;;;;;;;8.57;6.15;;;16.20;97.00;;;;;;4157286;28;20045;-62
2023/03/23 10:36:29;;;;;;;7.85;5.38;;;16.20;96.60;;;;;;4145161;28;20038;-65